Time;durP1;ratioP1;P1;durP2;ratioP2;P2;SDS_P1;SDS_P2;PMS_P1;PMS_P2;Temp;Humidity;BMP_temperature;BMP_pressure;BME280_temperature;BME280_humidity;BME280_pressure;Samples;Min_cycle;Max_cycle;Signal;HPM_P1;HPM_P2
2022/05/13 00:01:13;;;;;;;0.70;0.70;;;;;;;5.07;89.29;96042.19;6271251;28;20515;-66
2022/05/13 00:04:15;;;;;;;0.52;0.52;;;;;;;5.11;89.17;96052.31;6259127;28;20061;-66
2022/05/13 00:07:18;;;;;;;0.73;0.70;;;;;;;5.13;89.14;96057.47;6274925;28;20047;-65
2022/05/13 00:10:24;;;;;;;1.38;0.80;;;;;;;5.16;89.51;96059.91;6279259;28;20047;-66
2022/05/13 00:13:26;;;;;;;0.75;0.75;;;;;;;5.16;89.36;96062.50;6264619;28;20045;-65
2022/05/13 00:16:35;;;;;;;1.13;1.02;;;;;;;5.17;88.55;96066.78;6279436;28;20045;-66
2022/05/13 00:19:39;;;;;;;1.35;0.82;;;;;;;5.14;88.19;96059.13;6279397;28;20517;-66
2022/05/13 00:22:49;;;;;;;0.95;0.80;;;;;;;5.09;87.98;96048.13;6265408;28;20053;-67
2022/05/13 00:25:59;;;;;;;1.63;0.80;;;;;;;5.08;88.26;96044.69;6274194;28;20041;-67
2022/05/13 00:29:00;;;;;;;0.77;0.73;;;;;;;5.02;88.73;96050.25;6275961;28;20135;-66
2022/05/13 00:32:04;;;;;;;2.08;0.90;;;;;;;5.04;88.47;96044.94;6260501;28;20429;-67
2022/05/13 00:35:08;;;;;;;;;;;;;;;5.08;88.43;96054.28;6275240;28;20490;-66
2022/05/13 00:38:14;;;;;;;0.90;0.90;;;;;;;5.06;87.95;96040.47;6271082;28;19962;-67
2022/05/13 00:41:16;;;;;;;1.00;0.90;;;;;;;4.99;87.55;96040.00;6275566;28;20045;-66
2022/05/13 00:44:23;;;;;;;1.42;0.90;;;;;;;4.89;88.01;96055.28;6271083;28;20549;-66
2022/05/13 00:47:27;;;;;;;0.70;0.70;;;;;;;4.86;88.18;96081.53;6274931;28;20126;-67
2022/05/13 00:50:35;;;;;;;1.33;1.10;;;;;;;4.94;86.32;96074.13;6272416;28;20139;-66
2022/05/13 00:53:37;;;;;;;1.05;0.95;;;;;;;4.84;86.49;96064.28;6275153;28;20537;-66
2022/05/13 00:56:42;;;;;;;;;;;;;;;4.86;87.51;96071.09;6275102;28;20048;-67
2022/05/13 00:59:46;;;;;;;1.10;0.70;;;;;;;4.77;87.67;96071.59;6269495;28;19925;-66
2022/05/13 01:02:50;;;;;;;1.42;0.80;;;;;;;4.84;87.85;96070.38;6273807;28;20495;-65
2022/05/13 01:05:57;;;;;;;1.45;1.35;;;;;;;4.76;88.49;96059.50;6273697;28;20095;-65
2022/05/13 01:09:02;;;;;;;0.73;0.63;;;;;;;4.90;88.46;96050.94;6252897;28;20465;-65
2022/05/13 01:12:10;;;;;;;1.17;0.80;;;;;;;4.91;88.51;96057.81;6272329;28;20032;-65
2022/05/13 01:15:17;;;;;;;2.13;0.80;;;;;;;5.04;87.78;96048.41;6268683;28;20036;-64
2022/05/13 01:18:30;;;;;;;0.90;0.80;;;;;;;5.01;88.55;96064.22;6267986;28;20573;-65
2022/05/13 01:21:35;;;;;;;1.13;0.75;;;;;;;5.05;88.67;96049.22;6273608;28;20040;-65
2022/05/13 01:24:38;;;;;;;1.33;1.00;;;;;;;5.13;89.08;96057.47;6271104;28;20052;-65
2022/05/13 01:27:42;;;;;;;2.28;0.80;;;;;;;5.35;88.70;96052.72;6270883;28;20052;-64
2022/05/13 01:30:53;;;;;;;1.25;1.13;;;;;;;5.31;88.49;96059.03;6270074;28;20044;-63
2022/05/13 01:33:56;;;;;;;0.70;0.70;;;;;;;5.47;87.78;96055.56;6271857;28;20529;-64
2022/05/13 01:36:59;;;;;;;1.20;0.95;;;;;;;5.49;87.44;96059.75;6270172;28;20037;-64
2022/05/13 01:40:04;;;;;;;1.00;1.00;;;;;;;5.48;87.23;96047.63;6273179;28;20048;-64
2022/05/13 01:43:08;;;;;;;0.65;0.65;;;;;;;5.60;87.42;96053.91;6272152;28;20046;-63
2022/05/13 01:46:10;;;;;;;0.82;0.82;;;;;;;5.79;85.75;96045.84;6269701;28;20681;-64
2022/05/13 01:49:14;;;;;;;1.55;1.17;;;;;;;5.67;85.50;96030.91;6274237;28;20041;-63
2022/05/13 01:52:18;;;;;;;1.25;0.98;;;;;;;5.75;85.29;96039.97;6270520;28;20648;-62
2022/05/13 01:55:22;;;;;;;1.35;1.00;;;;;;;5.77;84.52;96039.84;6272241;28;20056;-63
2022/05/13 01:58:27;;;;;;;1.42;1.33;;;;;;;5.74;85.31;96037.44;6252587;28;20091;-63
2022/05/13 02:01:31;;;;;;;1.23;1.13;;;;;;;5.77;85.45;96024.19;6246825;28;20049;-62
2022/05/13 02:04:34;;;;;;;2.40;1.00;;;;;;;5.86;84.97;96031.50;6242833;28;20175;-62
2022/05/13 02:07:39;;;;;;;2.70;1.65;;;;;;;5.91;83.15;96028.59;6246186;28;20060;-63
2022/05/13 02:10:41;;;;;;;1.20;1.00;;;;;;;5.82;83.95;96024.75;6241653;28;20041;-63
2022/05/13 02:13:43;;;;;;;1.95;1.08;;;;;;;5.74;84.56;96020.00;6242292;28;20174;-62
2022/05/13 02:16:45;;;;;;;1.20;1.10;;;;;;;5.71;83.98;96007.13;6249726;28;20041;-63
2022/05/13 02:19:46;;;;;;;1.30;1.20;;;;;;;5.85;83.88;96041.09;6252415;28;20044;-62
2022/05/13 02:22:47;;;;;;;1.02;0.80;;;;;;;5.87;83.34;96042.78;6244430;28;20049;-62
2022/05/13 02:25:57;;;;;;;1.23;1.10;;;;;;;5.87;83.43;96048.84;6248381;28;20041;-62
2022/05/13 02:29:01;;;;;;;2.28;1.10;;;;;;;5.97;82.55;96060.47;6241814;28;20049;-62
2022/05/13 02:32:03;;;;;;;1.30;1.10;;;;;;;5.76;84.16;96051.25;6240659;28;20046;-63
2022/05/13 02:35:06;;;;;;;1.50;1.40;;;;;;;5.76;84.73;96041.63;6243628;28;20049;-62
2022/05/13 02:38:14;;;;;;;1.20;1.10;;;;;;;5.99;83.83;96031.63;6241832;28;20045;-63
2022/05/13 02:41:16;;;;;;;1.73;1.15;;;;;;;6.07;82.43;96029.41;6244651;28;20445;-63
2022/05/13 02:44:21;;;;;;;3.15;2.47;;;;;;;6.13;83.47;96018.56;6244648;28;20042;-63
2022/05/13 02:47:25;;;;;;;1.15;1.00;;;;;;;6.42;83.15;96015.94;6251446;28;20054;-64
2022/05/13 02:50:26;;;;;;;1.50;1.13;;;;;;;6.46;82.85;96005.22;6253121;28;20068;-63
2022/05/13 02:53:31;;;;;;;1.48;1.25;;;;;;;6.45;82.11;96018.34;6257528;28;20077;-63
2022/05/13 02:56:32;;;;;;;0.85;0.75;;;;;;;6.51;81.18;96021.44;6254748;28;20060;-63
2022/05/13 02:59:39;;;;;;;1.30;1.20;;;;;;;6.39;82.09;96008.28;6252246;28;20052;-63
2022/05/13 03:02:43;;;;;;;1.40;1.30;;;;;;;6.56;83.24;96029.00;6266621;28;20045;-64
2022/05/13 03:05:47;;;;;;;1.30;1.20;;;;;;;6.69;83.03;96011.59;6275712;28;20048;-64
2022/05/13 03:08:54;;;;;;;1.92;0.90;;;;;;;7.23;80.10;96013.41;6270876;28;20041;-61
2022/05/13 03:12:02;;;;;;;1.00;1.00;;;;;;;7.42;78.32;96011.25;6271209;28;20032;-63
2022/05/13 03:15:04;;;;;;;1.00;0.93;;;;;;;7.59;76.90;96012.75;6271374;28;20056;-63
2022/05/13 03:18:06;;;;;;;2.08;1.00;;;;;;;7.33;76.84;96017.09;6276162;28;20044;-63
2022/05/13 03:21:10;;;;;;;1.10;1.00;;;;;;;7.28;77.50;96007.88;6279016;28;20074;-63
2022/05/13 03:24:17;;;;;;;1.05;0.95;;;;;;;7.47;76.43;96003.06;6280984;28;20048;-63
2022/05/13 03:27:21;;;;;;;1.20;0.88;;;;;;;7.74;76.48;95999.56;6274966;28;20560;-63
2022/05/13 03:30:26;;;;;;;1.10;1.00;;;;;;;7.78;76.59;95995.78;6270199;28;20036;-62
2022/05/13 03:33:34;;;;;;;1.25;1.13;;;;;;;7.69;76.38;96001.66;6276164;28;20051;-63
2022/05/13 03:36:38;;;;;;;2.17;1.27;;;;;;;7.67;77.80;95983.41;6269640;28;20044;-63
2022/05/13 03:39:40;;;;;;;2.40;1.48;;;;;;;8.08;78.22;96001.56;6279994;28;20041;-63
2022/05/13 03:42:46;;;;;;;1.88;1.20;;;;;;;8.62;76.71;95997.84;6276593;28;20585;-63
2022/05/13 03:45:53;;;;;;;0.88;0.88;;;;;;;8.84;73.43;95991.91;6282213;28;20041;-63
2022/05/13 03:48:55;;;;;;;1.20;0.88;;;;;;;9.02;72.68;96004.63;6279026;28;20478;-63
2022/05/13 03:52:02;;;;;;;0.70;0.70;;;;;;;9.18;71.91;95995.53;6275958;28;20037;-63
2022/05/13 03:55:05;;;;;;;1.38;1.27;;;;;;;9.15;73.17;95974.78;6275683;28;20049;-63
2022/05/13 03:58:16;;;;;;;1.00;0.90;;;;;;;9.12;72.79;96001.25;6274645;28;20040;-63
2022/05/13 04:01:19;;;;;;;0.95;0.88;;;;;;;8.77;73.12;95988.03;6278406;28;20517;-63
2022/05/13 04:04:22;;;;;;;1.40;1.30;;;;;;;8.45;75.35;95975.44;6276573;28;20115;-63
2022/05/13 04:10:49;;;;;;;1.45;0.80;;;;;;;8.98;73.41;95962.06;6269521;28;20032;-63
2022/05/13 04:17:13;;;;;;;0.85;0.75;;;;;;;8.98;70.97;95967.31;6280712;28;20032;-62
2022/05/13 04:20:21;;;;;;;1.70;1.10;;;;;;;8.62;71.85;95971.63;6269332;28;20426;-63
2022/05/13 04:23:23;;;;;;;1.52;1.20;;;;;;;8.50;72.57;95978.56;6265486;28;20069;-62
2022/05/13 04:26:25;;;;;;;1.10;1.00;;;;;;;8.35;73.23;95966.53;6277496;28;20175;-63
2022/05/13 04:29:33;;;;;;;1.50;1.20;;;;;;;8.26;72.72;95969.78;6273549;28;20072;-63
2022/05/13 04:32:37;;;;;;;1.20;0.93;;;;;;;8.18;73.22;95975.56;6278565;28;20058;-63
2022/05/13 04:35:40;;;;;;;1.50;1.00;;;;;;;8.16;73.38;95972.22;6272909;28;20143;-63
2022/05/13 04:38:42;;;;;;;0.60;0.60;;;;;;;8.20;73.31;95970.22;6268147;28;20048;-63
2022/05/13 04:45:11;;;;;;;1.33;0.95;;;;;;;8.88;74.31;95955.78;6271488;28;20040;-63
2022/05/13 04:48:18;;;;;;;1.08;1.05;;;;;;;9.14;71.71;95956.50;6274870;28;20044;-64
2022/05/13 04:51:22;;;;;;;1.45;1.35;;;;;;;9.06;72.16;95949.22;6272905;28;20052;-64
2022/05/13 04:54:27;;;;;;;0.90;0.90;;;;;;;9.39;72.52;95956.34;6275600;28;20450;-63
2022/05/13 04:57:30;;;;;;;0.93;0.93;;;;;;;9.87;69.20;95939.63;6270039;28;20037;-63
2022/05/13 05:00:35;;;;;;;0.75;0.75;;;;;;;9.99;67.33;95943.09;6270688;28;20053;-63
2022/05/13 05:03:40;;;;;;;0.70;0.70;;;;;;;9.85;68.62;95937.13;6267280;28;20533;-63
2022/05/13 05:06:42;;;;;;;2.10;1.17;;;;;;;9.84;68.49;95926.72;6272280;28;20044;-63
2022/05/13 05:09:44;;;;;;;1.10;1.10;;;;;;;10.41;67.69;95911.78;6270291;28;20056;-63
2022/05/13 05:12:46;;;;;;;1.23;1.13;;;;;;;10.81;66.21;95888.38;6267242;28;20927;-64
2022/05/13 05:15:47;;;;;;;1.10;1.00;;;;;;;11.18;66.46;95917.81;6273697;28;20037;-63
2022/05/13 05:18:49;;;;;;;1.67;1.02;;;;;;;11.53;66.66;95921.94;6275834;28;20032;-63
2022/05/13 05:21:56;;;;;;;1.40;1.00;;;;;;;11.79;63.15;95921.53;6269148;28;20190;-63
2022/05/13 05:25:00;;;;;;;0.70;0.68;;;;;;;11.40;63.24;95905.47;6288596;28;20044;-66
2022/05/13 05:28:04;;;;;;;1.30;0.90;;;;;;;11.63;64.57;95907.03;6254225;28;20040;-63
2022/05/13 05:31:11;;;;;;;1.20;0.70;;;;;;;11.60;62.84;95907.25;6270954;28;20033;-62
2022/05/13 05:34:13;;;;;;;2.47;1.00;;;;;;;11.46;63.69;95904.94;6269289;28;20058;-63
2022/05/13 05:37:17;;;;;;;1.30;1.20;;;;;;;11.38;64.24;95900.34;6267990;28;20042;-63
2022/05/13 05:40:21;;;;;;;1.60;1.42;;;;;;;10.91;64.16;95896.38;6272096;28;20041;-63
2022/05/13 05:43:25;;;;;;;2.13;1.40;;;;;;;10.25;68.96;95899.84;6277283;28;20036;-63
2022/05/13 05:46:34;;;;;;;0.80;0.80;;;;;;;10.29;65.73;95892.56;6255712;28;20402;-62
2022/05/13 05:49:35;;;;;;;1.60;1.50;;;;;;;10.00;68.83;95886.97;6275410;28;20041;-63
2022/05/13 05:52:39;;;;;;;1.45;1.35;;;;;;;10.04;68.88;95889.22;6274591;28;20041;-64
2022/05/13 05:59:06;;;;;;;1.92;1.08;;;;;;;10.15;69.04;95883.13;6269161;28;20032;-63
2022/05/13 06:02:08;;;;;;;1.40;1.23;;;;;;;10.25;68.61;95883.25;6290008;28;20055;-63
2022/05/13 06:05:16;;;;;;;1.75;1.30;;;;;;;10.47;67.53;95892.91;6283228;28;20144;-63
2022/05/13 06:08:21;;;;;;;1.63;1.15;;;;;;;10.30;67.96;95895.09;6282021;28;20131;-63
2022/05/13 06:11:26;;;;;;;1.73;1.38;;;;;;;10.19;69.06;95868.78;6281459;28;20457;-63
2022/05/13 06:14:30;;;;;;;1.25;1.15;;;;;;;10.14;69.25;95878.84;6264743;28;20056;-63
2022/05/13 06:17:35;;;;;;;2.40;1.20;;;;;;;9.83;69.72;95875.13;6282377;28;20037;-64
2022/05/13 06:20:46;;;;;;;1.13;0.82;;;;;;;9.78;69.70;95878.13;6276492;28;20044;-63
2022/05/13 06:23:47;;;;;;;0.98;0.98;;;;;;;9.68;69.29;95871.88;6280838;28;20113;-62
2022/05/13 06:26:51;;;;;;;;;;;;;;;9.52;70.41;95871.41;6284892;28;20456;-63
2022/05/13 06:29:56;;;;;;;0.60;0.60;;;;;;;9.38;68.36;95865.41;6297799;28;19935;-63
2022/05/13 06:33:01;;;;;;;0.68;0.68;;;;;;;9.14;68.08;95864.66;6298848;28;20044;-62
2022/05/13 06:36:03;;;;;;;0.50;0.50;;;;;;;9.13;68.30;95876.09;6284514;28;20413;-62
2022/05/13 06:39:08;;;;;;;1.17;0.90;;;;;;;9.19;68.52;95875.63;6272724;28;20517;-63
2022/05/13 06:42:16;;;;;;;0.98;0.70;;;;;;;9.21;68.37;95889.50;6286114;28;20045;-62
2022/05/13 06:45:25;;;;;;;0.80;0.80;;;;;;;9.19;68.91;95880.88;6273523;28;20143;-63
2022/05/13 06:48:26;;;;;;;0.63;0.63;;;;;;;9.17;69.71;95874.91;6295813;28;20056;-64
2022/05/13 06:51:36;;;;;;;0.80;0.80;;;;;;;9.24;68.45;95867.44;6296713;28;20036;-62
2022/05/13 06:54:41;;;;;;;1.02;0.93;;;;;;;9.13;69.21;95873.47;6273133;28;20056;-61
2022/05/13 06:57:48;;;;;;;1.83;0.60;;;;;;;9.14;68.42;95867.25;6277494;28;20033;-64
2022/05/13 07:00:49;;;;;;;0.65;0.55;;;;;;;9.24;67.55;95863.00;6278138;28;20052;-64
2022/05/13 07:03:54;;;;;;;0.40;0.40;;;;;;;9.34;65.80;95873.63;6294590;28;20135;-66
2022/05/13 07:06:59;;;;;;;0.43;0.43;;;;;;;9.27;66.40;95865.41;6282063;28;20036;-67
2022/05/13 07:10:05;;;;;;;0.50;0.50;;;;;;;9.30;66.29;95859.91;6275705;28;20494;-66
2022/05/13 07:13:14;;;;;;;1.00;0.77;;;;;;;9.39;65.71;95867.09;6297409;28;20565;-67
2022/05/13 07:16:18;;;;;;;0.75;0.75;;;;;;;9.21;66.77;95852.75;6297520;28;20049;-66
2022/05/13 07:19:20;;;;;;;0.60;0.60;;;;;;;9.34;67.84;95858.75;6278488;28;20041;-66
2022/05/13 07:22:23;;;;;;;0.70;0.70;;;;;;;9.53;66.67;95867.81;6295336;28;20048;-65
2022/05/13 07:25:28;;;;;;;1.10;0.65;;;;;;;9.59;66.77;95859.47;6297181;28;20048;-67
2022/05/13 07:28:33;;;;;;;2.38;1.30;;;;;;;9.52;67.58;95855.66;6271620;28;20059;-66
2022/05/13 07:31:39;;;;;;;1.00;0.82;;;;;;;9.75;64.63;95865.22;6254233;28;20049;-66
2022/05/13 07:34:41;;;;;;;1.90;1.42;;;;;;;9.54;67.51;95853.72;6272061;28;20041;-65
2022/05/13 07:37:42;;;;;;;1.13;1.00;;;;;;;9.28;68.34;95855.72;6272102;28;20430;-65
2022/05/13 07:44:08;;;;;;;1.10;1.00;;;;;;;9.28;69.50;95864.44;6289953;28;20101;-66
2022/05/13 07:47:17;;;;;;;0.80;0.80;;;;;;;9.21;70.22;95858.00;6293500;28;20044;-66
2022/05/13 07:50:23;;;;;;;0.85;0.85;;;;;;;9.03;72.00;95843.63;6277219;28;20507;-66
2022/05/13 07:53:25;;;;;;;1.05;0.80;;;;;;;9.03;72.18;95859.38;6273743;28;20053;-64
2022/05/13 07:56:29;;;;;;;0.98;0.98;;;;;;;8.74;74.31;95857.94;6283754;28;20044;-65
2022/05/13 07:59:32;;;;;;;2.30;1.20;;;;;;;8.37;76.64;95853.69;6290935;28;20067;-65
2022/05/13 08:02:33;;;;;;;2.13;1.05;;;;;;;8.29;77.60;95854.25;6282494;28;20053;-65
2022/05/13 08:05:40;;;;;;;1.98;1.55;;;;;;;8.05;78.66;95867.31;6270283;28;20061;-65
2022/05/13 08:08:45;;;;;;;1.35;1.25;;;;;;;8.14;79.47;95865.84;6270446;28;20048;-65
2022/05/13 08:11:47;;;;;;;1.55;1.45;;;;;;;8.29;80.40;95864.72;6279999;28;20125;-65
2022/05/13 08:14:48;;;;;;;2.50;1.25;;;;;;;8.88;79.64;95862.19;6282216;28;20048;-64
2022/05/13 08:17:58;;;;;;;1.15;0.85;;;;;;;9.23;76.66;95856.09;6288800;28;20048;-64
2022/05/13 08:21:02;;;;;;;1.20;1.10;;;;;;;9.79;72.49;95858.75;6295878;28;20041;-67
2022/05/13 08:24:03;;;;;;;0.95;0.77;;;;;;;10.13;67.71;95861.38;6278963;28;20068;-66
2022/05/13 08:27:08;;;;;;;1.52;0.90;;;;;;;10.15;66.86;95864.72;6280578;28;20056;-67
2022/05/13 08:30:11;;;;;;;1.75;0.85;;;;;;;10.04;67.27;95852.41;6251512;28;20052;-66
2022/05/13 08:33:18;;;;;;;0.70;0.70;;;;;;;9.85;68.25;95852.19;6276339;28;20486;-66
2022/05/13 08:36:20;;;;;;;1.85;0.82;;;;;;;10.10;67.22;95851.09;6286598;28;20048;-65
2022/05/13 08:39:21;;;;;;;1.17;0.77;;;;;;;10.44;64.39;95837.91;6278311;28;20052;-64
2022/05/13 08:42:41;;;;;;;1.30;0.88;;;;;;;10.77;65.54;95829.91;6275220;28;20148;-68
2022/05/13 08:45:54;;;;;;;2.05;1.20;;;;;;;11.10;64.97;95828.09;6284918;28;20452;-67
2022/05/13 08:49:29;;;;;;;0.60;0.60;;;;;;;11.24;62.41;95825.13;6277561;28;20041;-66
2022/05/13 08:53:19;;;;;;;0.75;0.65;;;;;;;10.95;64.70;95826.72;6232328;28;20044;-66
2022/05/13 08:56:32;;;;;;;1.50;1.23;;;;;;;10.66;63.63;95829.94;6257890;28;20048;-69
2022/05/13 09:00:08;;;;;;;1.90;1.77;;;;;;;10.46;65.62;95836.00;6285290;28;20067;-68
2022/05/13 09:03:34;;;;;;;2.13;1.95;;;;;;;10.34;67.03;95853.63;6288077;28;20133;-67
2022/05/13 09:06:44;;;;;;;3.90;1.75;;;;;;;10.15;67.50;95812.16;6277975;28;20048;-66
2022/05/13 09:09:57;;;;;;;2.72;2.28;;;;;;;10.03;68.36;95813.13;6237491;28;20041;-68
2022/05/13 09:13:41;;;;;;;1.48;1.30;;;;;;;10.10;68.39;95809.88;6270255;28;20586;-67
2022/05/13 09:17:03;;;;;;;1.33;1.23;;;;;;;9.88;68.80;95810.75;6256392;28;20484;-67
2022/05/13 09:20:10;;;;;;;1.92;1.25;;;;;;;9.99;66.34;95806.44;6269861;28;20040;-68
2022/05/13 09:23:16;;;;;;;1.10;1.00;;;;;;;9.96;67.80;95796.16;6269741;28;20418;-67
2022/05/13 09:26:24;;;;;;;1.23;1.13;;;;;;;9.95;69.51;95789.25;6267836;28;20567;-67
2022/05/13 09:29:26;;;;;;;1.33;0.93;;;;;;;10.12;67.89;95786.94;6256848;28;20063;-68
2022/05/13 09:32:30;;;;;;;0.90;0.90;;;;;;;9.94;69.70;95788.41;6290592;28;20055;-70
2022/05/13 09:35:41;;;;;;;1.10;0.98;;;;;;;9.99;69.68;95786.28;6289058;28;20762;-68
2022/05/13 09:39:00;;;;;;;1.05;1.00;;;;;;;10.19;67.96;95787.31;6283848;28;20447;-68
2022/05/13 09:42:23;;;;;;;2.00;1.20;;;;;;;10.41;67.79;95769.78;6278930;28;20044;-68
2022/05/13 09:45:34;;;;;;;1.50;1.40;;;;;;;10.67;65.75;95768.50;6281695;28;20136;-68
2022/05/13 09:48:51;;;;;;;2.03;1.80;;;;;;;10.83;66.97;95765.41;6276025;28;20041;-66
2022/05/13 09:52:09;;;;;;;1.70;1.58;;;;;;;10.97;66.84;95772.16;6293346;28;20055;-67
2022/05/13 09:55:36;;;;;;;1.30;1.00;;;;;;;11.07;65.00;95767.78;6278240;28;20580;-68
2022/05/13 09:58:55;;;;;;;1.35;1.15;;;;;;;11.16;63.70;95760.91;6279031;28;20056;-67
2022/05/13 10:02:25;;;;;;;1.20;1.10;;;;;;;11.50;62.93;95727.25;6280333;28;20080;-67
2022/05/13 10:05:33;;;;;;;3.10;1.40;;;;;;;11.97;63.76;95740.72;6283186;28;20103;-67
2022/05/13 10:08:48;;;;;;;1.58;1.48;;;;;;;11.89;64.51;95748.50;6291115;28;20040;-68
2022/05/13 10:15:14;;;;;;;1.70;1.50;;;;;;;12.10;64.17;95738.66;6289224;28;20387;-67
2022/05/13 10:18:27;;;;;;;1.60;1.50;;;;;;;11.96;63.84;95757.50;6254666;28;20049;-67
2022/05/13 10:21:58;;;;;;;1.98;1.23;;;;;;;11.63;65.23;95733.13;6273477;28;20040;-67
2022/05/13 10:25:20;;;;;;;1.42;1.30;;;;;;;11.39;66.53;95738.72;6232289;28;20056;-68
2022/05/13 10:28:33;;;;;;;1.63;1.52;;;;;;;11.20;67.01;95733.34;6256223;28;20045;-68
2022/05/13 10:31:41;;;;;;;1.70;1.48;;;;;;;11.22;65.96;95737.53;6280596;28;20036;-70
2022/05/13 10:34:53;;;;;;;0.90;0.90;;;;;;;11.36;63.74;95741.59;6284960;28;20398;-67
2022/05/13 10:38:15;;;;;;;1.20;1.08;;;;;;;11.42;63.51;95743.72;6286298;28;20135;-69
2022/05/13 10:41:36;;;;;;;2.53;1.10;;;;;;;11.49;61.57;95730.84;6270138;28;20033;-68
2022/05/13 10:45:07;;;;;;;1.10;1.05;;;;;;;11.58;61.92;95739.75;6273406;28;20037;-67
2022/05/13 10:48:27;;;;;;;0.80;0.80;;;;;;;11.78;59.29;95738.03;6265083;28;20078;-68
2022/05/13 10:51:46;;;;;;;0.90;0.82;;;;;;;11.69;59.78;95737.84;6292622;28;20037;-68
2022/05/13 10:55:03;;;;;;;1.25;1.10;;;;;;;11.65;60.78;95746.16;6291314;28;20044;-68
2022/05/13 10:58:35;;;;;;;1.40;1.30;;;;;;;11.68;62.84;95744.06;6292714;28;20040;-67
2022/05/13 11:02:10;;;;;;;1.40;1.30;;;;;;;11.64;62.40;95745.31;6272428;28;20052;-68
2022/05/13 11:05:31;;;;;;;3.05;1.98;;;;;;;11.66;61.59;95753.94;6288124;28;20044;-67
2022/05/13 11:08:49;;;;;;;2.15;1.83;;;;;;;11.65;61.32;95757.53;6283933;28;20041;-66
2022/05/13 11:12:17;;;;;;;1.40;1.30;;;;;;;11.41;60.99;95749.94;6280442;28;20049;-67
2022/05/13 11:15:45;;;;;;;1.95;1.38;;;;;;;11.32;61.42;95750.72;6267861;28;20505;-68
2022/05/13 11:19:04;;;;;;;1.17;1.02;;;;;;;11.18;62.91;95749.28;6266324;28;20459;-67
2022/05/13 11:22:29;;;;;;;1.63;1.00;;;;;;;10.94;63.82;95761.88;6262315;28;20043;-68
2022/05/13 11:26:28;;;;;;;1.30;1.20;;;;;;;10.90;64.67;95749.94;6296538;28;20421;-67
2022/05/13 11:29:56;;;;;;;2.35;1.10;;;;;;;10.72;64.70;95747.06;6210183;28;20467;-74
2022/05/13 11:33:18;;;;;;;1.20;1.10;;;;;;;10.85;65.71;95741.63;6210971;28;20052;-69
2022/05/13 11:37:03;;;;;;;2.33;1.58;;;;;;;10.98;66.84;95752.75;6273024;28;20037;-68
2022/05/13 11:40:36;;;;;;;1.35;1.25;;;;;;;11.21;67.11;95741.13;6270055;28;20053;-67
2022/05/13 11:44:03;;;;;;;3.17;2.10;;;;;;;11.41;67.63;95749.94;6284112;28;20037;-68
2022/05/13 11:47:35;;;;;;;1.70;1.60;;;;;;;11.57;65.60;95738.06;6279719;28;20049;-67
2022/05/13 11:50:39;;;;;;;1.50;1.40;;;;;;;11.54;66.34;95731.28;6269760;28;20045;-67
2022/05/13 11:53:53;;;;;;;2.00;1.80;;;;;;;11.52;68.49;95733.22;6276519;28;20037;-67
2022/05/13 11:57:26;;;;;;;1.50;1.40;;;;;;;11.73;68.32;95734.94;6263471;28;20036;-71
2022/05/13 12:00:36;;;;;;;2.58;1.60;;;;;;;11.69;65.57;95732.59;6254303;28;20044;-68
2022/05/13 12:03:41;;;;;;;1.77;1.67;;;;;;;11.39;67.55;95735.25;6278552;28;20044;-69
2022/05/13 12:06:50;;;;;;;1.90;1.75;;;;;;;11.17;69.69;95736.25;6263680;28;20051;-68
2022/05/13 12:09:57;;;;;;;1.45;1.35;;;;;;;11.01;69.43;95726.19;6285506;28;20132;-67
2022/05/13 12:13:32;;;;;;;1.90;1.80;;;;;;;10.89;70.52;95733.31;6278310;28;20079;-67
2022/05/13 12:16:49;;;;;;;1.17;1.08;;;;;;;10.78;69.48;95730.75;6269465;28;20636;-67
2022/05/13 12:20:10;;;;;;;1.90;1.60;;;;;;;10.51;70.14;95726.00;6291541;28;20037;-66
2022/05/13 12:23:22;;;;;;;2.10;1.67;;;;;;;10.46;71.20;95715.84;6270224;28;20422;-66
2022/05/13 12:26:50;;;;;;;1.75;1.65;;;;;;;10.49;70.15;95714.78;6273146;28;20037;-66
2022/05/13 12:30:31;;;;;;;1.67;1.58;;;;;;;10.43;71.22;95715.28;6279992;28;20037;-66
2022/05/13 12:33:36;;;;;;;2.33;1.98;;;;;;;10.46;71.02;95709.78;6264171;28;20197;-67
2022/05/13 12:40:22;;;;;;;1.73;1.58;;;;;;;10.68;69.59;95709.66;6270150;28;20041;-66
2022/05/13 12:43:53;;;;;;;1.40;1.30;;;;;;;10.77;69.15;95710.66;6278099;28;20455;-66
2022/05/13 12:47:20;;;;;;;2.22;1.60;;;;;;;10.84;68.64;95713.63;6279464;28;20041;-66
2022/05/13 12:50:36;;;;;;;2.97;1.60;;;;;;;10.71;68.39;95703.31;6274966;28;20041;-66
2022/05/13 12:53:48;;;;;;;3.58;1.40;;;;;;;10.49;69.15;95704.25;6274416;28;20037;-66
2022/05/13 12:57:06;;;;;;;2.20;1.65;;;;;;;10.20;69.15;95701.38;6270588;28;20032;-66
2022/05/13 13:00:19;;;;;;;1.70;1.10;;;;;;;10.24;68.58;95706.25;6274413;28;20624;-66
2022/05/13 13:03:25;;;;;;;0.95;0.85;;;;;;;10.04;69.34;95709.66;6269430;28;20033;-65
2022/05/13 13:06:41;;;;;;;2.78;1.90;;;;;;;9.83;70.59;95686.81;6276976;28;20415;-67
2022/05/13 13:09:48;;;;;;;2.53;1.60;;;;;;;9.68;72.00;95680.13;6271314;28;20045;-65
2022/05/13 13:13:07;;;;;;;1.75;1.30;;;;;;;9.72;72.23;95665.81;6292259;28;20037;-66
2022/05/13 13:16:36;;;;;;;3.45;1.13;;;;;;;9.75;72.68;95673.44;6274553;28;20033;-64
2022/05/13 13:19:44;;;;;;;2.88;1.55;;;;;;;9.55;72.18;95650.59;6273972;28;20722;-66
2022/05/13 13:22:54;;;;;;;3.28;1.63;;;;;;;9.32;74.01;95655.88;6257060;28;20438;-70
2022/05/13 13:26:01;;;;;;;2.38;1.90;;;;;;;9.25;73.75;95644.19;6280743;28;20036;-66
2022/05/13 13:29:07;;;;;;;1.70;1.60;;;;;;;9.18;74.40;95650.88;6279693;28;20045;-67
2022/05/13 13:32:22;;;;;;;2.42;1.92;;;;;;;9.32;74.73;95640.13;6269282;28;20502;-65
2022/05/13 13:35:47;;;;;;;2.50;2.10;;;;;;;9.49;74.50;95651.09;6270317;28;20037;-65
2022/05/13 13:38:54;;;;;;;2.42;1.65;;;;;;;9.40;73.85;95632.47;6249142;28;20613;-66
2022/05/13 13:42:18;;;;;;;1.95;1.75;;;;;;;9.36;74.29;95625.78;6275651;28;20375;-66
2022/05/13 13:45:24;;;;;;;2.75;1.65;;;;;;;9.42;75.16;95625.28;6292991;28;20147;-66
2022/05/13 13:48:35;;;;;;;2.10;1.90;;;;;;;9.36;75.35;95619.72;6282802;28;20119;-67
2022/05/13 13:52:12;;;;;;;1.95;1.75;;;;;;;9.36;76.14;95610.03;6275109;28;20053;-66
2022/05/13 13:55:19;;;;;;;1.58;1.45;;;;;;;9.23;76.92;95619.88;6243232;28;20864;-66
2022/05/13 13:58:49;;;;;;;4.00;2.25;;;;;;;9.25;76.77;95607.44;6287652;28;20055;-66
2022/05/13 14:01:56;;;;;;;3.67;2.42;;;;;;;9.32;76.63;95603.38;6288882;28;20045;-65
2022/05/13 14:04:58;;;;;;;2.92;2.38;;;;;;;9.15;77.71;95596.03;6278754;28;20414;-66
2022/05/13 14:08:01;;;;;;;2.15;1.88;;;;;;;9.16;77.85;95595.88;6287566;28;20504;-66
2022/05/13 14:11:12;;;;;;;3.03;2.33;;;;;;;9.18;77.18;95595.78;6289061;28;20053;-64
2022/05/13 14:14:16;;;;;;;2.57;2.13;;;;;;;9.14;77.62;95594.34;6273167;28;20049;-66
2022/05/13 14:17:27;;;;;;;2.97;2.03;;;;;;;9.16;77.04;95587.19;6293415;28;21051;-66
2022/05/13 14:20:37;;;;;;;2.17;1.77;;;;;;;9.12;77.40;95581.34;6291159;28;20044;-67
2022/05/13 14:23:39;;;;;;;2.55;1.98;;;;;;;8.99;78.29;95565.75;6316384;28;20044;-67
2022/05/13 14:26:54;;;;;;;1.77;1.63;;;;;;;8.96;79.04;95571.22;6285779;28;20052;-67
2022/05/13 14:30:05;;;;;;;1.90;1.75;;;;;;;8.99;79.49;95573.59;6280867;28;20425;-66
2022/05/13 14:33:06;;;;;;;2.13;1.20;;;;;;;9.07;79.42;95564.31;6270558;28;20048;-71
2022/05/13 14:36:10;;;;;;;2.53;1.92;;;;;;;9.09;79.08;95549.28;6262384;28;20573;-66
2022/05/13 14:42:45;;;;;;;2.33;1.83;;;;;;;9.21;78.70;95543.03;6277760;28;20049;-66
2022/05/13 14:45:46;;;;;;;2.20;2.00;;;;;;;9.29;78.54;95545.06;6284357;28;20053;-67
2022/05/13 14:48:50;;;;;;;2.15;1.85;;;;;;;9.34;77.95;95538.47;6284679;28;20045;-65
2022/05/13 14:51:54;;;;;;;2.70;2.10;;;;;;;9.26;78.20;95543.50;6287457;28;20044;-73
2022/05/13 14:55:04;;;;;;;2.67;2.28;;;;;;;9.34;77.98;95537.63;6283711;28;20048;-63
2022/05/13 14:58:29;;;;;;;2.25;1.52;;;;;;;9.60;76.84;95528.47;6278192;28;20415;-63
2022/05/13 15:01:41;;;;;;;2.50;2.20;;;;;;;9.40;77.44;95522.22;6290522;28;20049;-62
2022/05/13 15:04:53;;;;;;;4.30;2.55;;;;;;;9.34;78.14;95520.09;6287523;28;20044;-64
2022/05/13 15:08:00;;;;;;;3.55;2.83;;;;;;;9.24;78.95;95520.97;6282270;28;20822;-65
2022/05/13 15:11:07;;;;;;;3.63;2.42;;;;;;;9.20;79.26;95509.88;6278429;28;20033;-65
2022/05/13 15:14:12;;;;;;;3.15;2.45;;;;;;;9.15;79.45;95512.03;6272714;28;20061;-65
2022/05/13 15:17:19;;;;;;;3.42;2.97;;;;;;;9.08;80.43;95516.94;6285610;28;20040;-66
2022/05/13 15:20:23;;;;;;;4.15;3.20;;;;;;;9.21;79.87;95516.78;6296375;28;20060;-64
2022/05/13 15:23:27;;;;;;;4.05;2.78;;;;;;;9.08;80.79;95510.88;6297074;28;20032;-65
2022/05/13 15:26:33;;;;;;;5.50;3.53;;;;;;;9.02;81.61;95511.34;6297662;28;20052;-64